createdAt,value
2023-01-27T00:01:09.433Z,20.93
2023-01-27T00:03:37.486Z,20.90
2023-01-27T00:06:06.575Z,20.89
2023-01-27T00:08:34.666Z,20.89
2023-01-27T00:11:21.348Z,20.88
2023-01-27T00:13:50.674Z,20.89
2023-01-27T00:16:21.476Z,20.88
2023-01-27T00:18:49.527Z,20.88
2023-01-27T00:21:34.803Z,20.89
2023-01-27T00:24:19.962Z,20.86
2023-01-27T00:26:48.053Z,20.86
2023-01-27T00:29:17.343Z,20.86
2023-01-27T00:32:02.756Z,20.85
2023-01-27T00:34:32.930Z,20.86
2023-01-27T00:37:00.931Z,20.85
2023-01-27T00:39:28.993Z,20.85
2023-01-27T00:41:56.958Z,20.83
2023-01-27T00:44:26.408Z,20.84
2023-01-27T00:46:54.601Z,20.83
2023-01-27T00:49:24.155Z,20.83
2023-01-27T00:51:52.428Z,20.82
2023-01-27T00:54:20.805Z,20.82
2023-01-27T00:56:48.843Z,20.82
2023-01-27T00:59:16.747Z,20.82
2023-01-27T01:01:46.087Z,20.82
2023-01-27T01:04:14.176Z,20.80
2023-01-27T01:06:42.104Z,20.78
2023-01-27T01:09:10.075Z,20.78
2023-01-27T01:11:38.045Z,20.77
2023-01-27T01:14:06.152Z,20.77
2023-01-27T01:16:34.132Z,20.75
2023-01-27T01:19:04.691Z,20.76
2023-01-27T01:21:32.720Z,20.75
2023-01-27T01:24:00.709Z,20.75
2023-01-27T01:26:28.671Z,20.74
2023-01-27T01:28:56.592Z,20.73
2023-01-27T01:31:24.668Z,20.73
2023-01-27T01:33:52.599Z,20.72
2023-01-27T01:36:22.488Z,20.71
2023-01-27T01:38:50.643Z,20.69
2023-01-27T01:41:20.874Z,20.69
2023-01-27T01:43:49.430Z,20.69
2023-01-27T01:46:18.477Z,20.69
2023-01-27T01:48:49.617Z,20.68
2023-01-27T01:51:21.431Z,20.68
2023-01-27T01:53:57.617Z,20.68
2023-01-27T01:56:31.943Z,20.68
2023-01-27T01:59:07.886Z,20.67
2023-01-27T02:01:36.318Z,20.67
2023-01-27T02:04:09.057Z,20.66
2023-01-27T02:06:43.680Z,20.65
2023-01-27T02:09:13.114Z,20.65
2023-01-27T02:11:41.124Z,20.66
2023-01-27T02:14:09.230Z,20.65
2023-01-27T02:16:37.633Z,20.64
2023-01-27T02:19:06.744Z,20.63
2023-01-27T02:21:35.317Z,20.63
2023-01-27T02:24:10.869Z,20.62
2023-01-27T02:26:43.616Z,20.62
2023-01-27T02:29:14.632Z,20.61
2023-01-27T02:31:43.250Z,20.60
2023-01-27T02:34:15.072Z,20.59
2023-01-27T02:36:47.835Z,20.60
2023-01-27T02:39:18.102Z,20.58
2023-01-27T02:41:50.824Z,20.57
2023-01-27T02:44:18.869Z,20.55
2023-01-27T02:46:47.225Z,20.55
2023-01-27T02:49:15.295Z,20.53
2023-01-27T02:51:43.274Z,20.52
2023-01-27T02:54:11.280Z,20.52
2023-01-27T02:56:39.659Z,20.52
2023-01-27T02:59:09.197Z,20.50
2023-01-27T03:01:37.202Z,20.51
2023-01-27T03:04:06.110Z,20.51
2023-01-27T03:06:34.088Z,20.50
2023-01-27T03:09:02.112Z,20.50
2023-01-27T03:11:47.388Z,20.49
2023-01-27T03:14:16.777Z,20.47
2023-01-27T03:17:01.862Z,20.47
2023-01-27T03:19:29.886Z,20.47
2023-01-27T03:22:01.988Z,20.46
2023-01-27T03:24:30.078Z,20.45
2023-01-27T03:26:58.273Z,20.45
2023-01-27T03:29:46.047Z,20.44
2023-01-27T03:32:14.082Z,20.45
2023-01-27T03:34:42.051Z,20.43
2023-01-27T03:37:27.833Z,20.42
2023-01-27T03:40:12.966Z,20.41
2023-01-27T03:42:58.380Z,20.40
2023-01-27T03:45:44.974Z,20.41
2023-01-27T03:48:18.466Z,20.40
2023-01-27T03:50:53.137Z,20.40
2023-01-27T03:53:21.487Z,20.39
2023-01-27T03:55:49.564Z,20.38
2023-01-27T03:58:21.257Z,20.38
2023-01-27T04:00:53.679Z,20.37
2023-01-27T04:03:40.331Z,20.39
2023-01-27T04:06:28.013Z,20.37
2023-01-27T04:08:56.645Z,20.36
2023-01-27T04:11:42.341Z,20.36
2023-01-27T04:14:12.160Z,20.36
2023-01-27T04:16:41.742Z,20.36
2023-01-27T04:19:11.384Z,20.36
2023-01-27T04:21:40.119Z,20.37
2023-01-27T04:24:16.801Z,20.35
2023-01-27T04:26:46.043Z,20.36
2023-01-27T04:29:14.643Z,20.35
2023-01-27T04:31:44.525Z,20.36
2023-01-27T04:34:13.584Z,20.34
2023-01-27T04:36:42.320Z,20.34
2023-01-27T04:39:11.093Z,20.33
2023-01-27T04:41:39.469Z,20.33
2023-01-27T04:44:08.309Z,20.33
2023-01-27T04:46:36.378Z,20.32
2023-01-27T04:49:06.757Z,20.32
2023-01-27T04:51:35.391Z,20.30
2023-01-27T04:54:05.585Z,20.29
2023-01-27T04:56:35.507Z,20.30
2023-01-27T04:59:07.823Z,20.29
2023-01-27T05:01:35.943Z,20.29
2023-01-27T05:04:05.521Z,20.29
2023-01-27T05:06:34.019Z,20.28
2023-01-27T05:09:02.021Z,20.29
2023-01-27T05:11:30.195Z,20.28
2023-01-27T05:13:58.217Z,20.27
2023-01-27T05:16:27.581Z,20.27
2023-01-27T05:18:56.280Z,20.26
2023-01-27T05:21:28.307Z,20.26
2023-01-27T05:23:56.413Z,20.26
2023-01-27T05:26:26.666Z,20.26
2023-01-27T05:28:57.236Z,20.26
2023-01-27T05:31:27.442Z,20.26
2023-01-27T05:33:57.199Z,20.27
2023-01-27T05:36:27.699Z,20.22
2023-01-27T05:38:56.473Z,20.11
2023-01-27T05:41:24.728Z,20.10
2023-01-27T05:43:54.041Z,20.12
2023-01-27T05:46:23.913Z,20.14
2023-01-27T05:48:53.928Z,20.10
2023-01-27T05:51:24.527Z,20.09
2023-01-27T05:53:55.762Z,20.09
2023-01-27T05:56:26.510Z,20.09
2023-01-27T05:58:55.593Z,20.09
2023-01-27T06:01:25.505Z,20.11
2023-01-27T06:03:53.752Z,20.11
2023-01-27T06:06:23.764Z,20.12
2023-01-27T06:08:53.396Z,20.14
2023-01-27T06:11:22.298Z,20.14
2023-01-27T06:13:50.241Z,20.13
2023-01-27T06:16:19.535Z,20.13
2023-01-27T06:18:50.705Z,20.13
2023-01-27T06:21:20.672Z,20.14
2023-01-27T06:23:49.187Z,20.13
2023-01-27T06:26:20.384Z,20.12
2023-01-27T06:28:48.572Z,20.13
2023-01-27T06:31:18.508Z,20.14
2023-01-27T06:33:46.639Z,20.13
2023-01-27T06:36:19.321Z,20.13
2023-01-27T06:38:49.045Z,20.13
2023-01-27T06:41:18.512Z,20.13
2023-01-27T06:43:46.529Z,20.13
2023-01-27T06:46:15.140Z,20.13
2023-01-27T06:48:43.278Z,20.13
2023-01-27T06:51:11.454Z,20.11
2023-01-27T06:53:39.423Z,20.10
2023-01-27T06:56:07.990Z,20.07
2023-01-27T06:58:37.314Z,20.05
2023-01-27T07:01:07.134Z,20.04
2023-01-27T07:03:37.866Z,20.02
2023-01-27T07:06:06.510Z,20.03
2023-01-27T07:08:34.788Z,20.04
2023-01-27T07:11:05.964Z,20.04
2023-01-27T07:13:34.075Z,20.07
2023-01-27T07:16:03.478Z,20.08
2023-01-27T07:18:32.028Z,20.07
2023-01-27T07:21:00.044Z,20.07
2023-01-27T07:23:27.968Z,20.06
2023-01-27T07:25:56.065Z,20.05
2023-01-27T07:28:24.056Z,20.03
2023-01-27T07:30:52.234Z,20.02
2023-01-27T07:33:21.709Z,20.01
2023-01-27T07:35:50.384Z,20.01
2023-01-27T07:38:18.438Z,20.00
2023-01-27T07:40:46.447Z,20.00
2023-01-27T07:43:14.459Z,19.99
2023-01-27T07:45:42.484Z,20.01
2023-01-27T07:48:12.515Z,19.99
2023-01-27T07:50:42.693Z,20.00
2023-01-27T07:53:11.820Z,19.99
2023-01-27T07:55:39.810Z,19.99
2023-01-27T07:58:08.311Z,19.98
2023-01-27T08:00:36.756Z,19.99
2023-01-27T08:03:06.169Z,19.99
2023-01-27T08:05:35.721Z,19.98
2023-01-27T08:08:05.163Z,19.98
2023-01-27T08:10:33.364Z,19.97
2023-01-27T08:13:01.460Z,19.97
2023-01-27T08:15:29.446Z,19.97
2023-01-27T08:18:00.498Z,19.96
2023-01-27T08:20:29.020Z,19.97
2023-01-27T08:22:57.437Z,19.96
2023-01-27T08:25:26.848Z,19.95
2023-01-27T08:27:56.737Z,19.95
2023-01-27T08:30:24.846Z,19.96
2023-01-27T08:32:52.868Z,19.94
2023-01-27T08:35:21.034Z,19.95
2023-01-27T08:37:49.649Z,19.94
2023-01-27T08:40:18.897Z,19.92
2023-01-27T08:42:50.664Z,19.92
2023-01-27T08:45:18.817Z,19.94
2023-01-27T08:47:47.028Z,19.94
2023-01-27T08:50:15.419Z,19.94
2023-01-27T08:52:43.578Z,19.96
2023-01-27T08:55:12.492Z,19.84
2023-01-27T08:57:40.654Z,19.15
2023-01-27T09:00:12.860Z,19.32
2023-01-27T09:02:41.387Z,19.41
2023-01-27T09:05:09.576Z,19.50
2023-01-27T09:07:37.612Z,19.54
2023-01-27T09:10:19.653Z,19.58
2023-01-27T09:12:47.884Z,19.63
2023-01-27T09:15:17.301Z,19.69
2023-01-27T09:17:45.265Z,19.73
2023-01-27T09:20:14.288Z,19.74
2023-01-27T09:22:45.022Z,19.75
2023-01-27T09:25:16.392Z,19.77
2023-01-27T09:27:45.023Z,19.79
2023-01-27T09:30:14.768Z,19.81
2023-01-27T09:32:44.332Z,19.82
2023-01-27T09:35:12.732Z,19.82
2023-01-27T09:37:46.177Z,19.84
2023-01-27T09:40:24.898Z,19.84
2023-01-27T09:43:16.421Z,19.85
2023-01-27T09:46:14.049Z,19.84
2023-01-27T09:48:59.637Z,19.87
2023-01-27T09:51:37.550Z,19.86
2023-01-27T09:54:28.921Z,19.86
2023-01-27T09:57:10.445Z,19.69
2023-01-27T10:00:09.309Z,19.75
2023-01-27T10:02:58.069Z,19.75
2023-01-27T10:05:53.224Z,19.76
2023-01-27T10:08:45.227Z,19.75
2023-01-27T10:11:21.286Z,19.76
2023-01-27T10:14:05.010Z,19.76
2023-01-27T10:16:53.452Z,19.78
2023-01-27T10:19:36.884Z,19.77
2023-01-27T10:22:17.354Z,19.78
2023-01-27T10:24:59.580Z,19.78
2023-01-27T10:27:33.228Z,19.78
2023-01-27T10:30:09.679Z,19.81
2023-01-27T10:32:45.587Z,19.81
2023-01-27T10:35:19.261Z,19.82
2023-01-27T10:37:59.999Z,19.82
2023-01-27T10:40:37.081Z,19.83
2023-01-27T10:43:11.517Z,19.84
2023-01-27T10:45:46.106Z,19.86
2023-01-27T10:48:28.942Z,19.86
2023-01-27T10:51:03.849Z,19.86
2023-01-27T10:53:43.079Z,19.88
2023-01-27T10:56:16.298Z,19.87
2023-01-27T10:58:50.691Z,19.88
2023-01-27T11:01:26.565Z,19.88
2023-01-27T11:04:00.112Z,19.87
2023-01-27T11:06:31.874Z,19.88
2023-01-27T11:09:09.733Z,19.88
2023-01-27T11:11:49.234Z,19.86
2023-01-27T11:14:23.586Z,19.89
2023-01-27T11:16:53.505Z,19.88
2023-01-27T11:19:30.904Z,19.87
2023-01-27T11:22:08.298Z,19.87
2023-01-27T11:24:46.212Z,19.86
2023-01-27T11:27:28.197Z,19.87
2023-01-27T11:30:02.952Z,19.87
2023-01-27T11:32:44.071Z,19.88
2023-01-27T11:35:14.046Z,19.91
2023-01-27T11:37:44.077Z,19.91
2023-01-27T11:40:19.682Z,19.89
2023-01-27T11:42:48.198Z,19.88
2023-01-27T11:45:19.343Z,19.89
2023-01-27T11:47:50.145Z,19.88
2023-01-27T11:50:20.865Z,19.90
2023-01-27T11:52:53.248Z,19.93
2023-01-27T11:55:26.659Z,19.93
2023-01-27T11:57:58.925Z,19.95
2023-01-27T12:00:27.796Z,19.96
2023-01-27T12:03:04.704Z,19.96
2023-01-27T12:05:35.963Z,19.99
2023-01-27T12:08:05.880Z,19.99
2023-01-27T12:10:38.828Z,20.00
2023-01-27T12:13:10.462Z,20.00
2023-01-27T12:15:48.411Z,20.03
2023-01-27T12:18:17.327Z,20.05
2023-01-27T12:20:47.307Z,20.08
2023-01-27T12:23:21.450Z,20.08
2023-01-27T12:25:54.963Z,20.09
2023-01-27T12:28:29.451Z,20.11
2023-01-27T12:31:05.428Z,20.13
2023-01-27T12:33:35.666Z,20.13
2023-01-27T12:36:14.224Z,20.15
2023-01-27T12:38:49.015Z,20.16
2023-01-27T12:41:25.328Z,20.15
2023-01-27T12:43:55.695Z,20.17
2023-01-27T12:46:25.913Z,20.16
2023-01-27T12:49:02.687Z,20.18
2023-01-27T12:51:40.999Z,20.18
2023-01-27T12:54:18.171Z,20.19
2023-01-27T12:56:50.612Z,20.19
2023-01-27T12:59:21.479Z,20.20
2023-01-27T13:02:02.029Z,20.20
2023-01-27T13:04:31.288Z,20.20
2023-01-27T13:07:07.822Z,20.22
2023-01-27T13:09:39.752Z,20.22
2023-01-27T13:12:18.073Z,20.24
2023-01-27T13:14:46.333Z,20.24
2023-01-27T13:17:37.370Z,20.25
2023-01-27T13:20:16.226Z,20.26
2023-01-27T13:22:48.252Z,20.28
2023-01-27T13:25:23.131Z,20.26
2023-01-27T13:27:57.497Z,20.28
2023-01-27T13:30:31.317Z,20.27
2023-01-27T13:33:05.173Z,20.27
2023-01-27T13:35:38.557Z,20.28
2023-01-27T13:38:16.613Z,20.28
2023-01-27T13:40:46.995Z,20.29
2023-01-27T13:43:24.420Z,20.29
2023-01-27T13:45:56.491Z,20.30
2023-01-27T13:48:28.451Z,20.31
2023-01-27T13:51:04.632Z,20.31
2023-01-27T13:53:32.773Z,20.31
2023-01-27T13:56:18.579Z,20.32
2023-01-27T13:59:01.553Z,20.31
2023-01-27T14:01:43.331Z,20.33
2023-01-27T14:04:34.569Z,20.28
2023-01-27T14:07:13.968Z,20.29
2023-01-27T14:09:57.314Z,20.31
2023-01-27T14:12:40.734Z,20.32
2023-01-27T14:15:23.034Z,20.36
2023-01-27T14:17:58.715Z,20.38
2023-01-27T14:20:40.155Z,20.42
2023-01-27T14:23:22.977Z,20.47
2023-01-27T14:26:00.624Z,20.49
2023-01-27T14:28:34.836Z,20.52
2023-01-27T14:31:10.397Z,20.55
2023-01-27T14:33:59.667Z,20.58
2023-01-27T14:36:33.904Z,20.60
2023-01-27T14:39:07.522Z,20.61
2023-01-27T14:41:41.196Z,20.64
2023-01-27T14:44:20.152Z,20.67
2023-01-27T14:47:00.946Z,20.67
2023-01-27T14:49:47.818Z,20.69
2023-01-27T14:52:31.575Z,20.66
2023-01-27T14:55:11.944Z,20.66
2023-01-27T14:57:48.763Z,20.67
2023-01-27T15:00:32.546Z,20.69
2023-01-27T15:03:32.068Z,20.70
2023-01-27T15:06:07.166Z,20.70
2023-01-27T15:08:41.696Z,20.71
2023-01-27T15:11:29.332Z,20.71
2023-01-27T15:14:21.048Z,20.73
2023-01-27T15:17:06.499Z,20.72
2023-01-27T15:19:50.073Z,20.73
2023-01-27T15:22:37.606Z,20.71
2023-01-27T15:25:33.460Z,20.68
2023-01-27T15:28:03.668Z,20.65
2023-01-27T15:30:38.051Z,20.64
2023-01-27T15:33:49.601Z,20.62
2023-01-27T15:36:31.585Z,20.60
2023-01-27T15:39:20.221Z,20.59
2023-01-27T15:41:54.716Z,20.58
2023-01-27T15:44:30.864Z,20.56
2023-01-27T15:47:09.548Z,20.56
2023-01-27T15:49:42.048Z,20.55
2023-01-27T15:52:26.123Z,20.54
2023-01-27T15:54:56.410Z,20.53
2023-01-27T15:57:29.982Z,20.51
2023-01-27T16:00:03.159Z,20.51
2023-01-27T16:02:32.448Z,20.51
2023-01-27T16:05:17.481Z,20.51
2023-01-27T16:07:49.427Z,20.51
2023-01-27T16:10:21.485Z,20.51
2023-01-27T16:12:49.614Z,20.50
2023-01-27T16:15:38.987Z,20.50
2023-01-27T16:18:26.443Z,20.50
2023-01-27T16:21:03.292Z,20.49
2023-01-27T16:23:41.601Z,20.49
2023-01-27T16:26:21.184Z,20.51
2023-01-27T16:28:53.446Z,20.50
2023-01-27T16:31:24.309Z,20.50
2023-01-27T16:33:58.370Z,20.51
2023-01-27T16:36:30.435Z,20.51
2023-01-27T16:39:22.457Z,20.50
2023-01-27T16:41:54.624Z,20.49
2023-01-27T16:44:23.503Z,20.50
2023-01-27T16:46:56.807Z,20.50
2023-01-27T16:49:28.086Z,20.49
2023-01-27T16:51:56.844Z,20.49
2023-01-27T16:54:30.690Z,20.48
2023-01-27T16:56:59.104Z,20.51
2023-01-27T16:59:31.005Z,20.51
2023-01-27T17:02:03.774Z,20.52
2023-01-27T17:04:32.988Z,20.51
2023-01-27T17:07:07.382Z,20.50
2023-01-27T17:09:42.952Z,20.50
2023-01-27T17:12:29.719Z,20.51
2023-01-27T17:14:58.850Z,20.51
2023-01-27T17:17:28.681Z,20.50
2023-01-27T17:20:01.712Z,20.49
2023-01-27T17:22:38.409Z,20.49
2023-01-27T17:25:15.552Z,20.49
2023-01-27T17:27:46.081Z,20.51
2023-01-27T17:30:22.761Z,20.50
2023-01-27T17:32:52.997Z,20.50
2023-01-27T17:35:23.894Z,20.53
2023-01-27T17:37:52.139Z,20.52
2023-01-27T17:40:23.643Z,20.52
2023-01-27T17:42:51.693Z,20.53
2023-01-27T17:45:25.600Z,20.53
2023-01-27T17:47:54.097Z,20.54
2023-01-27T17:50:24.618Z,20.54
2023-01-27T17:52:56.289Z,20.54
2023-01-27T17:55:27.601Z,20.54
2023-01-27T17:58:04.371Z,20.57
2023-01-27T18:00:37.649Z,20.57
2023-01-27T18:03:14.373Z,20.59
2023-01-27T18:05:45.027Z,20.62
2023-01-27T18:08:16.070Z,20.65
2023-01-27T18:10:45.555Z,20.63
2023-01-27T18:13:34.808Z,20.64
2023-01-27T18:16:05.018Z,20.65
2023-01-27T18:18:35.231Z,20.65
2023-01-27T18:21:05.708Z,20.65
2023-01-27T18:23:36.126Z,20.65
2023-01-27T18:26:14.807Z,20.66
2023-01-27T18:28:45.493Z,20.66
2023-01-27T18:31:18.041Z,20.66
2023-01-27T18:33:46.745Z,20.66
2023-01-27T18:36:22.999Z,20.67
2023-01-27T18:38:54.398Z,20.68
2023-01-27T18:41:29.091Z,20.68
2023-01-27T18:43:57.639Z,20.68
2023-01-27T18:46:26.816Z,20.69
2023-01-27T18:48:55.642Z,20.68
2023-01-27T18:51:23.981Z,20.69
2023-01-27T18:53:51.958Z,20.70
2023-01-27T18:56:20.493Z,20.69
2023-01-27T18:58:50.285Z,20.69
2023-01-27T19:01:23.226Z,20.71
2023-01-27T19:03:52.580Z,20.71
2023-01-27T19:06:20.682Z,20.71
2023-01-27T19:08:52.094Z,20.71
2023-01-27T19:11:20.200Z,20.73
2023-01-27T19:13:48.648Z,20.72
2023-01-27T19:16:19.043Z,20.73
2023-01-27T19:18:47.171Z,20.74
2023-01-27T19:21:17.219Z,20.73
2023-01-27T19:23:45.995Z,20.74
2023-01-27T19:26:18.419Z,20.75
2023-01-27T19:28:49.041Z,20.76
2023-01-27T19:31:19.144Z,20.76
2023-01-27T19:33:47.582Z,20.78
2023-01-27T19:36:22.638Z,20.78
2023-01-27T19:38:56.393Z,20.81
2023-01-27T19:41:24.470Z,20.82
2023-01-27T19:43:52.439Z,20.82
2023-01-27T19:46:24.429Z,20.83
2023-01-27T19:48:52.941Z,20.83
2023-01-27T19:51:21.165Z,20.85
2023-01-27T19:53:49.190Z,20.85
2023-01-27T19:56:19.549Z,20.84
2023-01-27T19:58:51.383Z,20.84
2023-01-27T20:01:19.808Z,20.86
2023-01-27T20:03:49.248Z,20.88
2023-01-27T20:06:21.098Z,20.89
2023-01-27T20:08:52.162Z,20.90
2023-01-27T20:11:32.382Z,20.90
2023-01-27T20:14:01.206Z,20.91
2023-01-27T20:16:29.954Z,20.92
2023-01-27T20:19:00.201Z,20.93
2023-01-27T20:21:28.706Z,20.93
2023-01-27T20:23:56.666Z,20.93
2023-01-27T20:26:24.884Z,20.95
2023-01-27T20:28:52.965Z,20.96
2023-01-27T20:31:23.216Z,20.96
2023-01-27T20:33:51.988Z,20.97
2023-01-27T20:36:22.964Z,20.97
2023-01-27T20:38:51.712Z,20.97
2023-01-27T20:41:21.448Z,20.97
2023-01-27T20:43:50.074Z,20.98
2023-01-27T20:46:20.871Z,20.99
2023-01-27T20:48:49.010Z,21.00
2023-01-27T20:51:17.628Z,20.99
2023-01-27T20:53:47.392Z,21.02
2023-01-27T20:56:18.469Z,21.04
2023-01-27T20:58:47.291Z,21.04
2023-01-27T21:01:16.918Z,21.04
2023-01-27T21:03:45.157Z,21.06
2023-01-27T21:06:15.715Z,21.06
2023-01-27T21:08:43.889Z,21.06
2023-01-27T21:11:15.901Z,21.05
2023-01-27T21:13:43.928Z,21.07
2023-01-27T21:16:12.153Z,21.08
2023-01-27T21:18:40.381Z,21.09
2023-01-27T21:21:08.307Z,21.08
2023-01-27T21:23:36.292Z,21.09
2023-01-27T21:26:09.196Z,21.07
2023-01-27T21:28:38.651Z,21.10
2023-01-27T21:31:07.796Z,21.10
2023-01-27T21:33:37.123Z,21.11
2023-01-27T21:36:05.586Z,21.10
2023-01-27T21:38:33.848Z,21.11
2023-01-27T21:41:05.963Z,21.13
2023-01-27T21:43:51.564Z,21.14
2023-01-27T21:46:20.961Z,21.14
2023-01-27T21:48:49.179Z,21.12
2023-01-27T21:51:17.153Z,21.15
2023-01-27T21:53:47.574Z,21.13
2023-01-27T21:56:15.584Z,21.13
2023-01-27T21:58:43.525Z,21.14
2023-01-27T22:01:11.934Z,21.13
2023-01-27T22:03:41.281Z,21.12
2023-01-27T22:06:10.839Z,21.13
2023-01-27T22:08:39.069Z,21.13
2023-01-27T22:11:09.862Z,21.13
2023-01-27T22:13:39.566Z,21.12
2023-01-27T22:16:08.810Z,21.12
2023-01-27T22:18:36.976Z,21.13
2023-01-27T22:21:06.543Z,21.11
2023-01-27T22:23:34.637Z,21.11
2023-01-27T22:26:02.685Z,21.10
2023-01-27T22:28:33.390Z,21.10
2023-01-27T22:31:03.384Z,21.09
2023-01-27T22:33:32.186Z,21.08
2023-01-27T22:36:01.444Z,21.06
2023-01-27T22:38:30.811Z,21.05
2023-01-27T22:40:59.671Z,21.08
2023-01-27T22:43:27.688Z,21.06
2023-01-27T22:45:55.696Z,21.07
2023-01-27T22:48:23.770Z,21.07
2023-01-27T22:50:51.679Z,21.05
2023-01-27T22:53:19.710Z,21.04
2023-01-27T22:55:56.783Z,21.04
2023-01-27T22:58:25.031Z,21.02
2023-01-27T23:00:53.227Z,21.01
2023-01-27T23:03:22.183Z,21.01
2023-01-27T23:05:50.678Z,21.00
2023-01-27T23:08:20.676Z,21.00
2023-01-27T23:10:50.756Z,20.99
2023-01-27T23:13:18.793Z,21.00
2023-01-27T23:15:47.086Z,20.99
2023-01-27T23:18:15.038Z,20.98
2023-01-27T23:20:43.677Z,20.97
2023-01-27T23:23:12.398Z,20.98
2023-01-27T23:25:45.157Z,20.98
2023-01-27T23:28:16.759Z,20.98
2023-01-27T23:30:45.317Z,20.98
2023-01-27T23:33:14.321Z,20.97
2023-01-27T23:35:42.792Z,20.88
2023-01-27T23:38:22.875Z,20.88
2023-01-27T23:41:02.007Z,20.88
2023-01-27T23:43:32.017Z,20.89
2023-01-27T23:46:00.585Z,20.88
2023-01-27T23:48:28.811Z,20.90
2023-01-27T23:50:56.905Z,20.89
2023-01-27T23:53:24.871Z,20.88
2023-01-27T23:55:57.295Z,20.88
2023-01-27T23:58:25.653Z,20.87
